Fairfax, South Carolina
Current Conditions -  °F | °C
As of 11:35 AM on Tuesday 21 Oct 2014 (Local Time) from KBNL Reporting Station
Clear Clear  
Wind Chill: 73°   Ceiling: Unl
Heat Index: 73°   Visibility: 10mi
Dew Point: 54°   Wind: 6mph
Humidity: 50%   Direction: 280°W
Pressure: 29.99"   Gusts: NA
Location:  32.96°N, 81.24°W
Report Text: KBNL 211535Z AUTO 28005KT 10SM CLR 23/12 A2999 RMK AO2
Loading
Personal Weather Stations






























Interactive Weather Map
Tropical Storm Tracking
New forecast layout! Learn more

10-Day Weather Forecast

Advertisements
Track Severe Weather on mobile